Time;durP1;ratioP1;P1;durP2;ratioP2;P2;SDS_P1;SDS_P2;PMS_P1;PMS_P2;Temp;Humidity;BMP_temperature;BMP_pressure;BME280_temperature;BME280_humidity;BME280_pressure;Samples;Min_cycle;Max_cycle;Signal;HPM_P1;HPM_P2
2023/01/23 00:01:12;;;;;;;;;;;;;;;1.80;100.00;101379.69;5548292;32;34885;-74
2023/01/23 00:04:18;;;;;;;;;;;;;;;1.94;100.00;101389.34;5547360;32;34718;-73
2023/01/23 00:07:24;;;;;;;;;;;;;;;1.82;100.00;101379.59;5548411;32;34594;-74
2023/01/23 00:10:31;;;;;;;;;;;;;;;1.86;100.00;101371.50;5548000;32;34490;-74
2023/01/23 00:13:37;;;;;;;;;;;;;;;1.81;100.00;101368.28;5547185;32;34901;-74
2023/01/23 00:16:45;;;;;;;;;;;;;;;1.83;100.00;101365.59;5547929;32;34048;-74
2023/01/23 00:19:53;;;;;;;;;;;;;;;1.86;100.00;101350.56;5559892;32;34416;-73
2023/01/23 00:23:00;;;;;;;;;;;;;;;1.87;100.00;101356.63;5567273;32;35293;-73
2023/01/23 00:26:07;;;;;;;;;;;;;;;1.91;100.00;101348.53;5553641;32;34706;-73
2023/01/23 00:29:15;;;;;;;;;;;;;;;1.92;100.00;101346.75;5553446;32;35466;-74
2023/01/23 00:32:21;;;;;;;;;;;;;;;1.89;100.00;101352.97;5566452;32;34343;-73
2023/01/23 00:35:30;;;;;;;;;;;;;;;1.87;100.00;101349.63;5567171;32;34475;-74
2023/01/23 00:38:36;;;;;;;;;;;;;;;1.98;100.00;101362.09;5553543;32;34337;-72
2023/01/23 00:41:44;;;;;;;;;;;;;;;1.96;100.00;101366.56;5553699;32;34434;-74
2023/01/23 00:44:52;;;;;;;;;;;;;;;1.95;100.00;101367.50;5566747;32;34500;-74
2023/01/23 00:47:59;;;;;;;;;;;;;;;2.01;100.00;101361.91;5566846;32;34845;-73
2023/01/23 00:51:05;;;;;;;;;;;;;;;1.96;100.00;101364.78;5566862;32;34911;-72
2023/01/23 00:54:11;;;;;;;;;;;;;;;2.03;100.00;101355.63;5566800;32;34563;-72
2023/01/23 00:57:16;;;;;;;;;;;;;;;1.99;100.00;101358.53;5566635;32;34443;-72
2023/01/23 01:00:25;;;;;;;;;;;;;;;1.91;100.00;101360.75;5566699;32;34599;-73
2023/01/23 01:03:32;;;;;;;;;;;;;;;1.97;100.00;101370.88;5566767;32;35061;-73
2023/01/23 01:06:38;;;;;;;;;;;;;;;1.89;100.00;101366.06;5566552;32;35108;-73
2023/01/23 01:09:45;;;;;;;;;;;;;;;1.83;100.00;101373.44;5553231;32;34931;-73
2023/01/23 01:12:58;;;;;;;;;;;;;;;1.99;100.00;101359.37;5566433;32;34259;-72
2023/01/23 01:16:08;;;;;;;;;;;;;;;1.90;100.00;101365.16;5566458;32;34453;-72
2023/01/23 01:19:16;;;;;;;;;;;;;;;2.04;100.00;101367.81;5552812;32;34418;-73
2023/01/23 01:22:23;;;;;;;;;;;;;;;2.04;100.00;101365.19;5566406;32;34513;-73
2023/01/23 01:25:32;;;;;;;;;;;;;;;2.15;100.00;101367.19;5552967;32;34486;-73
2023/01/23 01:28:38;;;;;;;;;;;;;;;2.11;100.00;101349.97;5566337;32;34443;-73
2023/01/23 01:31:45;;;;;;;;;;;;;;;2.12;100.00;101346.44;5552824;32;35591;-72
2023/01/23 01:34:52;;;;;;;;;;;;;;;2.22;100.00;101341.50;5552723;32;34399;-73
2023/01/23 01:38:02;;;;;;;;;;;;;;;2.11;100.00;101348.22;5565865;32;35029;-73
2023/01/23 01:41:11;;;;;;;;;;;;;;;2.04;100.00;101348.63;5566172;32;34459;-73
2023/01/23 01:44:21;;;;;;;;;;;;;;;2.12;100.00;101338.59;5568777;32;34474;-72
2023/01/23 01:47:27;;;;;;;;;;;;;;;2.02;100.00;101343.50;5555188;32;34948;-74
2023/01/23 01:50:34;;;;;;;;;;;;;;;2.07;100.00;101338.00;5568690;32;35005;-73
2023/01/23 01:53:40;;;;;;;;;;;;;;;2.04;100.00;101341.63;5568596;32;34897;-73
2023/01/23 01:57:07;;;;;;;;;;;;;;;1.93;100.00;101353.69;5568720;32;34495;-72
2023/01/23 02:00:15;;;;;;;;;;;;;;;1.93;100.00;101344.06;5568565;32;34612;-73
2023/01/23 02:03:28;;;;;;;;;;;;;;;1.92;100.00;101350.22;5554590;32;33943;-74
2023/01/23 02:06:35;;;;;;;;;;;;;;;2.04;100.00;101352.09;5568401;32;34230;-74
2023/01/23 02:09:45;;;;;;;;;;;;;;;2.18;100.00;101357.38;5555374;32;34174;-72
2023/01/23 02:12:52;;;;;;;;;;;;;;;2.16;100.00;101346.16;5568467;32;34337;-73
2023/01/23 02:16:01;;;;;;;;;;;;;;;2.18;100.00;101343.44;5568454;32;34024;-73
2023/01/23 02:19:26;;;;;;;;;;;;;;;2.28;100.00;101339.34;5555189;32;35592;-72
2023/01/23 02:22:37;;;;;;;;;;;;;;;2.39;100.00;101341.31;5554994;32;34446;-73
2023/01/23 02:25:43;;;;;;;;;;;;;;;2.32;100.00;101337.41;5568358;32;34450;-73
2023/01/23 02:28:52;;;;;;;;;;;;;;;2.33;100.00;101328.59;5541980;32;33535;-72
2023/01/23 02:32:01;;;;;;;;;;;;;;;2.40;100.00;101328.16;5568394;32;34790;-73
2023/01/23 02:35:14;;;;;;;;;;;;;;;2.46;100.00;101332.19;5555129;32;34437;-74
2023/01/23 02:38:28;;;;;;;;;;;;;;;2.39;100.00;101338.69;5568312;32;34453;-74
2023/01/23 02:41:37;;;;;;;;;;;;;;;2.44;100.00;101326.16;5568290;32;34991;-73
2023/01/23 02:44:45;;;;;;;;;;;;;;;2.46;100.00;101333.03;5554984;32;34460;-73
2023/01/23 02:47:58;;;;;;;;;;;;;;;2.43;100.00;101320.09;5555329;32;35061;-73
2023/01/23 02:51:04;;;;;;;;;;;;;;;2.52;100.00;101331.78;5568225;32;35028;-73
2023/01/23 02:54:12;;;;;;;;;;;;;;;2.66;100.00;101321.31;5567281;32;34996;-73
2023/01/23 02:57:17;;;;;;;;;;;;;;;2.62;100.00;101319.81;5554605;32;35479;-73
2023/01/23 03:00:26;;;;;;;;;;;;;;;2.51;100.00;101324.87;5568205;32;34623;-73
2023/01/23 03:03:33;;;;;;;;;;;;;;;2.66;100.00;101317.88;5568141;32;35270;-72
2023/01/23 03:06:39;;;;;;;;;;;;;;;2.59;100.00;101297.28;5568182;32;34965;-73
2023/01/23 03:09:46;;;;;;;;;;;;;;;2.54;100.00;101304.56;5554636;32;34391;-73
2023/01/23 03:13:00;;;;;;;;;;;;;;;2.55;100.00;101292.31;5568004;32;34574;-73
2023/01/23 03:16:08;;;;;;;;;;;;;;;2.72;100.00;101284.25;5554830;32;34518;-73
2023/01/23 03:19:16;;;;;;;;;;;;;;;2.76;100.00;101277.06;5567821;32;35051;-73
2023/01/23 03:22:22;;;;;;;;;;;;;;;2.68;100.00;101284.53;5541517;32;34384;-73
2023/01/23 03:25:28;;;;;;;;;;;;;;;2.61;100.00;101281.47;5567960;32;34496;-74
2023/01/23 03:32:04;;;;;;;;;;;;;;;2.77;100.00;101286.56;5567973;32;34884;-73
2023/01/23 03:35:15;;;;;;;;;;;;;;;2.74;100.00;101287.63;5567975;32;33958;-73
2023/01/23 03:38:22;;;;;;;;;;;;;;;2.69;100.00;101291.47;5554701;32;34942;-72
2023/01/23 03:41:28;;;;;;;;;;;;;;;2.58;100.00;101290.34;5567912;32;34524;-72
2023/01/23 03:44:35;;;;;;;;;;;;;;;2.72;100.00;101286.88;5567904;32;34541;-72
2023/01/23 03:47:43;;;;;;;;;;;;;;;2.68;100.00;101282.75;5568125;32;35112;-72
2023/01/23 03:50:51;;;;;;;;;;;;;;;2.65;100.00;101279.50;5567787;32;34406;-72
2023/01/23 03:54:01;;;;;;;;;;;;;;;2.54;100.00;101273.16;5567797;32;34968;-72
2023/01/23 03:57:08;;;;;;;;;;;;;;;2.73;100.00;101290.34;5554241;32;34149;-71
2023/01/23 04:00:20;;;;;;;;;;;;;;;2.71;100.00;101285.19;5567715;32;34436;-73
2023/01/23 04:03:30;;;;;;;;;;;;;;;2.77;100.00;101283.97;5567805;32;35055;-72
2023/01/23 04:06:35;;;;;;;;;;;;;;;2.84;100.00;101286.12;5553899;32;34865;-75
2023/01/23 04:09:44;;;;;;;;;;;;;;;2.96;100.00;101281.88;5567618;32;34414;-73
2023/01/23 04:12:56;;;;;;;;;;;;;;;2.92;100.00;101283.84;5567672;32;33365;-73
2023/01/23 04:16:04;;;;;;;;;;;;;;;3.11;100.00;101282.66;5554277;32;34570;-72
2023/01/23 04:19:11;;;;;;;;;;;;;;;3.06;100.00;101282.97;5553904;32;34660;-72
2023/01/23 04:22:19;;;;;;;;;;;;;;;3.27;100.00;101280.75;5567351;32;34582;-72
2023/01/23 04:25:28;;;;;;;;;;;;;;;3.16;100.00;101283.22;5567336;32;34984;-72
2023/01/23 04:28:35;;;;;;;;;;;;;;;3.05;100.00;101295.22;5567444;32;34766;-72
2023/01/23 04:31:44;;;;;;;;;;;;;;;3.02;100.00;101287.56;5567410;32;34953;-74
2023/01/23 04:34:54;;;;;;;;;;;;;;;3.00;100.00;101291.25;5567255;32;34411;-73
2023/01/23 04:38:01;;;;;;;;;;;;;;;2.90;100.00;101298.84;5554005;32;35211;-72
2023/01/23 04:41:13;;;;;;;;;;;;;;;2.97;100.00;101287.03;5567105;32;34550;-74
2023/01/23 04:44:20;;;;;;;;;;;;;;;3.06;100.00;101278.56;5567194;32;35748;-75
2023/01/23 04:47:29;;;;;;;;;;;;;;;3.06;100.00;101288.22;5566923;32;34552;-72
2023/01/23 04:50:37;;;;;;;;;;;;;;;3.04;100.00;101287.47;5567078;32;34565;-74
2023/01/23 04:53:49;;;;;;;;;;;;;;;2.97;100.00;101291.41;5566983;32;34910;-74
2023/01/23 04:56:55;;;;;;;;;;;;;;;3.03;100.00;101297.13;5553348;31;34605;-74
2023/01/23 05:00:03;;;;;;;;;;;;;;;3.24;100.00;101289.69;5566847;32;34417;-73
2023/01/23 05:03:08;;;;;;;;;;;;;;;3.26;100.00;101302.66;5553634;32;35024;-73
2023/01/23 05:06:17;;;;;;;;;;;;;;;3.23;100.00;101297.63;5566599;32;35169;-72
2023/01/23 05:09:25;;;;;;;;;;;;;;;3.18;100.00;101297.94;5566847;32;34520;-72
2023/01/23 05:12:34;;;;;;;;;;;;;;;3.19;100.00;101310.09;5566761;32;34490;-73
2023/01/23 05:15:41;;;;;;;;;;;;;;;3.00;100.00;101315.66;5566590;32;34640;-72
2023/01/23 05:18:49;;;;;;;;;;;;;;;2.93;100.00;101314.38;5555246;32;34999;-72
2023/01/23 05:21:58;;;;;;;;;;;;;;;2.91;100.00;101312.75;5567702;32;33954;-73
2023/01/23 05:25:06;;;;;;;;;;;;;;;2.95;100.00;101317.72;5568003;32;34946;-73
2023/01/23 05:28:14;;;;;;;;;;;;;;;2.93;100.00;101324.00;5568672;32;34397;-73
2023/01/23 05:31:25;;;;;;;;;;;;;;;2.95;100.00;101322.94;5569026;32;34685;-73
2023/01/23 05:34:35;;;;;;;;;;;;;;;3.03;100.00;101320.72;5568990;32;34464;-73
2023/01/23 05:37:42;;;;;;;;;;;;;;;3.17;100.00;101319.00;5569004;32;34358;-74
2023/01/23 05:40:49;;;;;;;;;;;;;;;3.17;100.00;101317.22;5568908;32;34689;-72
2023/01/23 05:43:58;;;;;;;;;;;;;;;3.38;100.00;101320.25;5568861;32;34580;-72
2023/01/23 05:47:03;;;;;;;;;;;;;;;3.39;100.00;101327.16;5554670;32;34273;-72
2023/01/23 05:50:14;;;;;;;;;;;;;;;3.37;100.00;101316.78;5555481;32;34179;-73
2023/01/23 05:53:18;;;;;;;;;;;;;;;3.47;100.00;101322.28;5555051;32;34205;-72
2023/01/23 05:56:25;;;;;;;;;;;;;;;3.37;100.00;101316.78;5555327;31;34927;-73
2023/01/23 05:59:33;;;;;;;;;;;;;;;3.46;100.00;101328.47;5568593;32;34255;-72
2023/01/23 06:02:42;;;;;;;;;;;;;;;3.49;100.00;101329.09;5568849;32;34583;-74
2023/01/23 06:05:48;;;;;;;;;;;;;;;3.57;100.00;101335.63;5568567;32;34638;-73
2023/01/23 06:08:55;;;;;;;;;;;;;;;3.74;100.00;101345.84;5555361;32;34563;-74
2023/01/23 06:12:00;;;;;;;;;;;;;;;3.76;100.00;101339.59;5568459;32;34462;-75
2023/01/23 06:15:05;;;;;;;;;;;;;;;3.78;100.00;101352.59;5567846;32;34677;-74
2023/01/23 06:18:11;;;;;;;;;;;;;;;3.85;100.00;101353.88;5554832;32;35063;-74
2023/01/23 06:21:17;;;;;;;;;;;;;;;3.93;100.00;101357.69;5568330;32;35167;-74
2023/01/23 06:24:22;;;;;;;;;;;;;;;3.76;100.00;101367.59;5568134;32;34817;-74
2023/01/23 06:27:26;;;;;;;;;;;;;;;3.91;100.00;101375.31;5554432;32;34473;-74
2023/01/23 06:30:31;;;;;;;;;;;;;;;3.90;100.00;101383.28;5567918;32;34942;-75
2023/01/23 06:33:35;;;;;;;;;;;;;;;3.84;100.00;101381.06;5567063;32;34940;-76
2023/01/23 06:36:42;;;;;;;;;;;;;;;3.77;100.00;101391.12;5564883;32;34434;-73
2023/01/23 06:39:47;;;;;;;;;;;;;;;3.81;100.00;101395.25;5552892;32;33057;-72
2023/01/23 06:42:55;;;;;;;;;;;;;;;3.92;100.00;101392.72;5567241;32;35074;-73
2023/01/23 06:46:00;;;;;;;;;;;;;;;3.84;100.00;101400.28;5566146;32;35214;-73
2023/01/23 06:49:05;;;;;;;;;;;;;;;3.94;100.00;101400.53;5553680;32;32965;-74
2023/01/23 06:52:09;;;;;;;;;;;;;;;3.93;100.00;101407.56;5567389;32;34601;-73
2023/01/23 06:55:13;;;;;;;;;;;;;;;3.95;100.00;101407.47;5566294;32;34875;-75
2023/01/23 06:58:18;;;;;;;;;;;;;;;4.04;100.00;101413.88;5554910;32;34434;-74
2023/01/23 07:01:23;;;;;;;;;;;;;;;4.11;100.00;101404.69;5553678;32;33677;-74
2023/01/23 07:04:31;;;;;;;;;;;;;;;4.06;100.00;101391.84;5567020;32;35199;-74
2023/01/23 07:07:35;;;;;;;;;;;;;;;4.28;100.00;101407.84;5553197;32;35063;-73
2023/01/23 07:10:39;;;;;;;;;;;;;;;4.36;100.00;101402.06;5565528;32;35041;-73
2023/01/23 07:13:43;;;;;;;;;;;;;;;4.54;100.00;101407.91;5552276;32;34490;-72
2023/01/23 07:16:49;;;;;;;;;;;;;;;4.51;100.00;101408.09;5549869;32;34543;-73
2023/01/23 07:19:53;;;;;;;;;;;;;;;4.56;100.00;101424.38;5549764;32;35325;-72
2023/01/23 07:22:57;;;;;;;;;;;;;;;4.74;100.00;101431.84;5544169;32;35104;-74
2023/01/23 07:26:02;;;;;;;;;;;;;;;4.92;100.00;101424.50;5527245;32;34520;-74
2023/01/23 07:29:07;;;;;;;;;;;;;;;4.93;100.00;101434.09;5535202;32;33951;-74
2023/01/23 07:32:11;;;;;;;;;;;;;;;5.01;100.00;101438.81;5547422;32;34450;-74
2023/01/23 07:35:15;;;;;;;;;;;;;;;5.14;100.00;101437.00;5546276;32;34654;-74
2023/01/23 07:38:19;;;;;;;;;;;;;;;5.21;100.00;101435.62;5537870;32;34467;-74
2023/01/23 07:41:25;;;;;;;;;;;;;;;5.21;100.00;101447.00;5540562;32;34468;-73
2023/01/23 07:44:29;;;;;;;;;;;;;;;5.36;100.00;101445.06;5542847;32;33951;-74
2023/01/23 07:47:32;;;;;;;;;;;;;;;5.47;100.00;101441.69;5546216;32;35066;-74
2023/01/23 07:50:36;;;;;;;;;;;;;;;5.47;100.00;101447.78;5544998;32;35434;-74
2023/01/23 07:53:41;;;;;;;;;;;;;;;5.34;100.00;101439.06;5541488;32;34782;-72
2023/01/23 07:56:47;;;;;;;;;;;;;;;5.39;100.00;101439.59;5546740;32;34569;-73
2023/01/23 07:59:52;;;;;;;;;;;;;;;5.46;100.00;101434.75;5546937;32;35251;-72
2023/01/23 08:02:58;;;;;;;;;;;;;;;5.50;100.00;101444.94;5546905;32;34304;-74
2023/01/23 08:06:04;;;;;;;;;;;;;;;5.48;100.00;101441.56;5528431;32;34799;-72
2023/01/23 08:09:08;;;;;;;;;;;;;;;5.65;100.00;101451.75;5527790;32;34253;-73
2023/01/23 08:12:11;;;;;;;;;;;;;;;5.68;100.00;101448.03;5534747;32;34650;-72
2023/01/23 08:15:16;;;;;;;;;;;;;;;5.58;100.00;101447.00;5528496;32;34317;-73
2023/01/23 08:18:22;;;;;;;;;;;;;;;5.68;100.00;101446.25;5531918;32;34584;-72
2023/01/23 08:21:27;;;;;;;;;;;;;;;5.62;100.00;101449.31;5553557;32;34395;-72
2023/01/23 08:24:31;;;;;;;;;;;;;;;5.62;100.00;101436.16;5566270;32;34435;-73
2023/01/23 08:27:36;;;;;;;;;;;;;;;5.63;100.00;101443.09;5567190;32;34447;-73
2023/01/23 08:30:42;;;;;;;;;;;;;;;5.74;100.00;101438.84;5566981;32;34605;-73
2023/01/23 08:33:46;;;;;;;;;;;;;;;5.80;100.00;101446.31;5567218;32;34510;-74
2023/01/23 08:36:50;;;;;;;;;;;;;;;5.96;100.00;101453.00;5553271;32;35005;-73
2023/01/23 08:39:53;;;;;;;;;;;;;;;6.06;100.00;101459.28;5566369;32;34533;-75
2023/01/23 08:42:57;;;;;;;;;;;;;;;6.24;100.00;101451.84;5553142;32;34370;-73
2023/01/23 08:46:01;;;;;;;;;;;;;;;6.24;100.00;101456.28;5553448;32;34959;-72
2023/01/23 08:49:05;;;;;;;;;;;;;;;6.26;100.00;101449.91;5540477;32;34029;-73
2023/01/23 08:52:08;;;;;;;;;;;;;;;6.34;100.00;101455.44;5565198;32;34483;-72
2023/01/23 08:55:15;;;;;;;;;;;;;;;6.36;100.00;101461.47;5566386;32;35051;-72
2023/01/23 08:58:21;;;;;;;;;;;;;;;6.17;100.00;101455.03;5566491;32;34265;-72
2023/01/23 09:01:27;;;;;;;;;;;;;;;6.31;100.00;101454.84;5566710;32;34745;-74
2023/01/23 09:04:31;;;;;;;;;;;;;;;6.30;100.00;101450.53;5566781;32;34885;-73
2023/01/23 09:07:36;;;;;;;;;;;;;;;6.34;100.00;101460.72;5566625;32;34983;-73
2023/01/23 09:10:41;;;;;;;;;;;;;;;6.42;100.00;101454.91;5552922;32;35116;-73
2023/01/23 09:13:46;;;;;;;;;;;;;;;6.42;100.00;101454.91;5566449;32;34520;-73
2023/01/23 09:16:52;;;;;;;;;;;;;;;6.51;100.00;101452.41;5565961;32;34284;-72
2023/01/23 09:19:59;;;;;;;;;;;;;;;6.64;100.00;101460.22;5565985;32;34811;-73
2023/01/23 09:23:04;;;;;;;;;;;;;;;6.70;100.00;101458.91;5566192;32;34312;-73
2023/01/23 09:26:12;;;;;;;;;;;;;;;6.71;100.00;101457.97;5552724;32;34175;-73
2023/01/23 09:29:15;;;;;;;;;;;;;;;6.66;100.00;101466.22;5538706;32;33454;-72
2023/01/23 09:32:19;;;;;;;;;;;;;;;6.77;100.00;101460.16;5566033;32;34062;-72
2023/01/23 09:35:23;;;;;;;;;;;;;;;6.94;100.00;101449.12;5552209;32;34951;-72
2023/01/23 09:38:27;;;;;;;;;;;;;;;7.08;100.00;101455.97;5563986;31;35102;-74
2023/01/23 09:41:31;;;;;;;;;;;;;;;7.08;100.00;101445.41;5551182;32;34674;-72
2023/01/23 09:44:41;;;;;;;;;;;;;;;7.19;100.00;101453.34;5565399;32;35387;-73
2023/01/23 09:47:48;;;;;;;;;;;;;;;7.43;100.00;101448.78;5551949;32;35912;-73
2023/01/23 09:50:55;;;;;;;;;;;;;;;7.52;100.00;101448.03;5551191;32;33581;-72
2023/01/23 09:54:18;;;;;;;;;;;;;;;7.68;100.00;101451.16;5551932;32;34544;-72
2023/01/23 09:57:32;;;;;;;;;;;;;;;7.79;100.00;101453.75;5565477;32;34562;-73
2023/01/23 10:00:35;;;;;;;;;;;;;;;7.84;100.00;101451.56;5565441;32;35173;-73
2023/01/23 10:03:43;;;;;;;;;;;;;;;7.98;100.00;101441.72;5552828;32;33822;-72
2023/01/23 10:07:00;;;;;;;;;;;;;;;8.26;100.00;101441.97;5554998;32;34981;-71
2023/01/23 10:10:05;;;;;;;;;;;;;;;8.45;100.00;101448.38;5554284;32;35417;-71
2023/01/23 10:13:28;;;;;;;;;;;;;;;8.46;100.00;101448.25;5541701;32;32902;-71
2023/01/23 10:16:41;;;;;;;;;;;;;;;8.60;100.00;101447.94;5554820;32;34731;-71
2023/01/23 10:20:29;;;;;;;;;;;;;;;8.81;100.00;101447.91;5568008;32;35162;-72
2023/01/23 10:23:45;;;;;;;;;;;;;;;8.95;100.00;101452.91;5523017;32;34183;-72
2023/01/23 10:26:49;;;;;;;;;;;;;;;9.01;100.00;101447.06;5568253;32;35191;-71
2023/01/23 10:29:58;;;;;;;;;;;;;;;8.88;100.00;101451.72;5554668;32;34840;-71
2023/01/23 10:33:08;;;;;;;;;;;;;;;8.88;100.00;101445.59;5568291;32;34163;-71
2023/01/23 10:36:28;;;;;;;;;;;;;;;8.76;100.00;101447.50;5568329;32;34642;-70
2023/01/23 10:39:53;;;;;;;;;;;;;;;9.05;100.00;101445.81;5568194;32;34899;-73
2023/01/23 10:43:01;;;;;;;;;;;;;;;8.89;100.00;101445.47;5540590;32;33442;-71
2023/01/23 10:46:19;;;;;;;;;;;;;;;9.09;100.00;101441.13;5567480;32;34348;-71
2023/01/23 10:49:28;;;;;;;;;;;;;;;9.25;100.00;101430.00;5566965;32;34366;-70
2023/01/23 10:52:35;;;;;;;;;;;;;;;9.26;100.00;101429.06;5567243;32;35248;-71
2023/01/23 10:55:44;;;;;;;;;;;;;;;9.32;100.00;101433.81;5567992;32;34702;-71
2023/01/23 10:58:48;;;;;;;;;;;;;;;9.31;100.00;101429.50;5554068;32;33147;-72
2023/01/23 11:01:56;;;;;;;;;;;;;;;9.45;100.00;101426.47;5567176;32;35123;-71
2023/01/23 11:05:00;;;;;;;;;;;;;;;9.59;100.00;101420.78;5567245;32;34599;-72
2023/01/23 11:08:26;;;;;;;;;;;;;;;9.63;100.00;101419.56;5567045;32;34493;-73
2023/01/23 11:11:32;;;;;;;;;;;;;;;9.67;100.00;101412.19;5566603;32;35106;-71
2023/01/23 11:14:38;;;;;;;;;;;;;;;9.73;100.00;101411.62;5565062;32;34916;-72
2023/01/23 11:17:43;;;;;;;;;;;;;;;9.92;100.00;101419.59;5566861;32;34604;-72
2023/01/23 11:20:54;;;;;;;;;;;;;;;10.02;100.00;101429.22;5539556;32;33475;-75
2023/01/23 11:24:07;;;;;;;;;;;;;;;10.24;100.00;101412.25;5552989;32;35011;-72
2023/01/23 11:27:12;;;;;;;;;;;;;;;10.28;100.00;101396.88;5553172;32;35265;-71
2023/01/23 11:30:31;;;;;;;;;;;;;;;10.37;100.00;101398.69;5550910;32;34340;-71
2023/01/23 11:33:35;;;;;;;;;;;;;;;10.49;100.00;101400.22;5553515;32;34874;-71
2023/01/23 11:37:02;;;;;;;;;;;;;;;10.55;100.00;101394.34;5566538;32;35267;-72
2023/01/23 11:40:07;;;;;;;;;;;;;;;10.57;100.00;101400.31;5567246;32;34522;-71
2023/01/23 11:43:13;;;;;;;;;;;;;;;10.79;100.00;101401.81;5553839;32;34663;-75
2023/01/23 11:46:29;;;;;;;;;;;;;;;10.70;100.00;101392.87;5553882;32;34285;-72
2023/01/23 11:49:50;;;;;;;;;;;;;;;10.69;100.00;101393.06;5541883;32;34452;-73
2023/01/23 11:53:20;;;;;;;;;;;;;;;10.50;100.00;101385.97;5553791;32;34988;-72
2023/01/23 11:56:44;;;;;;;;;;;;;;;10.74;100.00;101383.69;5546200;32;33483;-72
2023/01/23 12:00:06;;;;;;;;;;;;;;;10.71;100.00;101386.59;5567581;32;34420;-72
2023/01/23 12:03:46;;;;;;;;;;;;;;;10.49;100.00;101381.66;5567734;32;34726;-72
2023/01/23 12:07:00;;;;;;;;;;;;;;;10.53;100.00;101384.84;5488558;32;35316;-72
2023/01/23 12:10:23;;;;;;;;;;;;;;;10.54;100.00;101384.72;5566924;32;34605;-72
2023/01/23 12:13:28;;;;;;;;;;;;;;;10.68;100.00;101394.03;5567433;32;34596;-72
2023/01/23 12:16:38;;;;;;;;;;;;;;;10.72;100.00;101388.28;5533708;32;1049412;-71
2023/01/23 12:19:46;;;;;;;;;;;;;;;10.90;98.35;101394.50;5566704;32;34923;-72
2023/01/23 12:23:09;;;;;;;;;;;;;;;11.27;94.16;101391.84;5566372;32;34966;-71
2023/01/23 12:26:13;;;;;;;;;;;;;;;11.42;91.24;101389.53;5565803;32;34512;-71
2023/01/23 12:29:36;;;;;;;;;;;;;;;11.73;88.76;101385.56;5565187;32;34372;-72
2023/01/23 12:32:59;;;;;;;;;;;;;;;11.50;89.80;101386.13;5552796;32;34393;-71
2023/01/23 12:36:15;;;;;;;;;;;;;;;11.18;90.02;101374.12;5566463;32;34975;-71
2023/01/23 12:39:37;;;;;;;;;;;;;;;11.52;88.92;101377.00;5555201;32;34585;-71
2023/01/23 12:42:40;;;;;;;;;;;;;;;11.43;89.34;101375.25;5555155;32;34359;-72
2023/01/23 12:45:51;;;;;;;;;;;;;;;11.67;87.17;101385.28;5566679;32;34558;-71
2023/01/23 12:49:03;;;;;;;;;;;;;;;11.44;88.61;101381.41;5566618;32;34694;-71
2023/01/23 12:52:16;;;;;;;;;;;;;;;11.41;90.18;101389.66;5566028;32;33220;-71
2023/01/23 12:55:22;;;;;;;;;;;;;;;11.28;89.96;101369.59;5566207;32;34901;-71
2023/01/23 12:58:28;;;;;;;;;;;;;;;11.55;89.32;101376.72;5566560;32;33982;-70
2023/01/23 13:02:09;;;;;;;;;;;;;;;11.60;88.77;101384.25;5552859;32;35013;-72
2023/01/23 13:05:20;;;;;;;;;;;;;;;11.75;88.67;101380.13;5487352;32;34805;-72
2023/01/23 13:08:35;;;;;;;;;;;;;;;11.68;88.35;101389.63;5475635;32;34602;-71
2023/01/23 13:11:55;;;;;;;;;;;;;;;11.60;89.41;101387.75;5566327;32;35223;-71
2023/01/23 13:15:24;;;;;;;;;;;;;;;11.81;90.79;101390.16;5566575;32;34815;-71
2023/01/23 13:22:37;;;;;;;;;;;;;;;12.24;83.76;101396.53;5561477;32;34468;-70
2023/01/23 13:25:41;;;;;;;;;;;;;;;12.03;83.49;101391.50;5552636;32;34896;-71
2023/01/23 13:28:54;;;;;;;;;;;;;;;11.82;84.78;101393.63;5565911;32;34530;-71
2023/01/23 13:32:18;;;;;;;;;;;;;;;11.72;86.06;101394.53;5552458;32;34328;-71
2023/01/23 13:35:47;;;;;;;;;;;;;;;11.70;85.36;101393.00;5551409;32;33680;-71
2023/01/23 13:39:04;;;;;;;;;;;;;;;11.24;88.85;101400.09;5553551;32;34074;-70
2023/01/23 13:42:10;;;;;;;;;;;;;;;11.06;90.17;101401.84;5570712;31;34231;-70
2023/01/23 13:45:15;;;;;;;;;;;;;;;10.98;93.87;101403.56;5574677;31;34854;-70
2023/01/23 13:59:27;;;;;;;;;;;;;;;10.55;94.95;101399.66;5358956;33;34514;-71
2023/01/23 14:06:36;;;;;;;;;;;;;;;10.58;95.51;101404.66;5235114;33;35078;-71
2023/01/23 14:09:54;;;;;;;;;;;;;;;10.69;96.01;101407.16;5233506;34;34516;-71
2023/01/23 14:13:26;;;;;;;;;;;;;;;10.64;97.10;101412.06;5181535;34;35110;-70
2023/01/23 14:16:59;;;;;;;;;;;;;;;10.52;96.95;101417.66;5207822;34;34251;-70
2023/01/23 14:20:18;;;;;;;;;;;;;;;10.35;99.40;101413.91;5182159;34;34456;-71
2023/01/23 14:23:37;;;;;;;;;;;;;;;10.24;100.00;101400.78;5200576;34;33576;-70
2023/01/23 14:26:47;;;;;;;;;;;;;;;10.13;100.00;101411.50;5227482;34;34915;-70
2023/01/23 14:29:58;;;;;;;;;;;;;;;10.06;100.00;101408.59;5257185;33;34607;-70
2023/01/23 14:33:09;;;;;;;;;;;;;;;9.95;100.00;101406.91;5401046;32;34710;-71
2023/01/23 14:36:16;;;;;;;;;;;;;;;9.97;100.00;101417.38;5469928;32;34207;-70
2023/01/23 14:39:21;;;;;;;;;;;;;;;9.90;100.00;101408.28;5552379;32;34205;-72
2023/01/23 14:42:27;;;;;;;;;;;;;;;9.84;100.00;101401.72;5566566;32;34467;-70
2023/01/23 14:45:34;;;;;;;;;;;;;;;9.77;100.00;101408.56;5565666;32;35031;-70
2023/01/23 14:48:40;;;;;;;;;;;;;;;9.83;100.00;101412.47;5555655;32;34332;-70
2023/01/23 14:52:06;;;;;;;;;;;;;;;9.70;100.00;101411.88;5541968;32;34118;-71
2023/01/23 14:55:21;;;;;;;;;;;;;;;9.60;100.00;101412.72;5566080;32;35071;-70
2023/01/23 14:58:37;;;;;;;;;;;;;;;9.49;100.00;101423.41;5554996;32;34926;-70
2023/01/23 15:01:51;;;;;;;;;;;;;;;9.44;100.00;101422.16;5567914;32;34294;-70
2023/01/23 15:05:08;;;;;;;;;;;;;;;9.34;100.00;101422.12;5554094;32;34588;-70
2023/01/23 15:08:20;;;;;;;;;;;;;;;9.44;100.00;101427.47;5567467;32;34546;-70
2023/01/23 15:11:26;;;;;;;;;;;;;;;9.40;100.00;101426.03;5566622;32;34315;-70
2023/01/23 15:14:34;;;;;;;;;;;;;;;9.26;100.00;101431.69;5567265;32;34317;-69
2023/01/23 15:17:42;;;;;;;;;;;;;;;9.13;100.00;101431.94;5553731;32;33437;-70
2023/01/23 15:20:53;;;;;;;;;;;;;;;9.03;100.00;101433.69;5567232;32;34661;-70
2023/01/23 15:24:03;;;;;;;;;;;;;;;8.99;100.00;101437.59;5566590;32;35148;-69
2023/01/23 15:27:37;;;;;;;;;;;;;;;8.94;100.00;101424.75;5567401;32;34509;-69
2023/01/23 15:30:44;;;;;;;;;;;;;;;8.99;100.00;101425.19;5555042;31;34739;-69
2023/01/23 15:33:49;;;;;;;;;;;;;;;9.00;100.00;101424.22;5565814;32;34468;-70
2023/01/23 15:36:53;;;;;;;;;;;;;;;8.97;100.00;101439.50;5565753;32;35266;-70
2023/01/23 15:40:01;;;;;;;;;;;;;;;8.91;100.00;101442.69;5566129;32;34162;-69
2023/01/23 15:43:10;;;;;;;;;;;;;;;8.72;100.00;101446.91;5566533;32;34680;-70
2023/01/23 15:46:16;;;;;;;;;;;;;;;8.74;100.00;101446.78;5570263;32;34427;-70
2023/01/23 15:49:24;;;;;;;;;;;;;;;8.57;100.00;101453.47;5570203;32;34427;-70
2023/01/23 15:52:45;;;;;;;;;;;;;;;8.47;100.00;101447.28;5569219;32;34618;-70
2023/01/23 15:55:50;;;;;;;;;;;;;;;8.57;100.00;101450.81;5553836;32;34987;-70
2023/01/23 15:58:54;;;;;;;;;;;;;;;8.75;100.00;101450.25;5553634;32;34167;-70
2023/01/23 16:02:00;;;;;;;;;;;;;;;8.62;100.00;101450.44;5566698;32;34395;-69
2023/01/23 16:05:08;;;;;;;;;;;;;;;8.48;100.00;101451.59;5553617;32;34548;-69
2023/01/23 16:08:21;;;;;;;;;;;;;;;8.60;100.00;101450.59;5567161;32;35108;-69
2023/01/23 16:11:29;;;;;;;;;;;;;;;8.49;100.00;101455.09;5566409;32;35075;-69
2023/01/23 16:14:33;;;;;;;;;;;;;;;8.48;100.00;101453.41;5567079;32;34980;-70
2023/01/23 16:17:42;;;;;;;;;;;;;;;8.30;100.00;101458.44;5567097;32;34604;-70
2023/01/23 16:20:54;;;;;;;;;;;;;;;8.25;100.00;101458.78;5566915;32;35598;-70
2023/01/23 16:23:59;;;;;;;;;;;;;;;8.18;100.00;101460.22;5567065;32;34837;-69
2023/01/23 16:27:09;;;;;;;;;;;;;;;8.17;100.00;101468.31;5566951;32;34266;-69
2023/01/23 16:30:27;;;;;;;;;;;;;;;8.31;100.00;101469.84;5553831;32;35029;-70
2023/01/23 16:33:36;;;;;;;;;;;;;;;8.27;100.00;101459.50;5566788;32;34823;-70